TJBQ/BQN METAR and TAF weather

Enter ICAO airport designator
Station Type Date Time Source
TJBQ METAR 2019/05/26 23:50 UTC NOAA

TJBQ 262350Z 07010KT 10SM BKN016 BKN023 OVC048 26/23 A2997


Station Type Date Time Source
TJBQ Decoded METAR 2019/05/26 23:50 UTC NOAA

Aquadilla, Rafael Hernandez Airport, PR, United States (TJBQ) 18-30N 067-08W 69M
May 26, 2019 - 07:50 PM EDT / 2019.05.26 2350 UTC
Wind: from the ENE (070 degrees) at 12 MPH (10 KT):0
Visibility: 10 mile(s):0
Sky conditions: overcast
Temperature: 78 F (26 C)
Dew Point: 73 F (23 C)
Relative Humidity: 83%
Pressure (altimeter): 29.97 in. Hg (1014 hPa)
ob: TJBQ 262350Z 07010KT 10SM BKN016 BKN023 OVC048 26/23 A2997
cycle: 0

Station Type Date Time Source
TJBQ TAF 2019/05/26 18:54 UTC NOAA

TAF TJBQ 261739Z 2618/2718 06012G18KT P6SM VCSH FEW025 SCT040
TEMPO 2619/2622 VRB14G20KT 5SM TSRA SCT025CB BKN040
FM262330 09008KT P6SM FEW035 SCT060 SCT100
FM270200 11003KT P6SM FEW050
FM271450 06012KT P6SM SCT030
AMD NOT SKED 2702/2711

Example: see airport list